createdAt,value
2022-08-17T00:00:49.444Z,12.30
2022-08-17T00:01:44.943Z,12.30
2022-08-17T00:02:38.322Z,12.10
2022-08-17T00:03:34.219Z,12.40
2022-08-17T00:04:34.201Z,11.30
2022-08-17T00:05:34.184Z,12.50
2022-08-17T00:06:34.176Z,12.30
2022-08-17T00:07:34.162Z,12.90
2022-08-17T00:08:34.151Z,12.00
2022-08-17T00:09:34.142Z,12.50
2022-08-17T00:10:34.128Z,12.30
2022-08-17T00:11:34.112Z,13.00
2022-08-17T00:12:43.193Z,13.10
2022-08-17T00:13:34.101Z,12.50
2022-08-17T00:14:34.077Z,12.90
2022-08-17T00:15:34.060Z,12.40
2022-08-17T00:16:50.448Z,12.50
2022-08-17T00:17:34.035Z,13.00
2022-08-17T00:19:01.829Z,13.40
2022-08-17T00:19:34.039Z,13.30
2022-08-17T00:20:34.870Z,13.40
2022-08-17T00:21:56.399Z,13.40
2022-08-17T00:22:36.427Z,13.50
2022-08-17T00:23:33.968Z,13.50
2022-08-17T00:24:33.954Z,13.40
2022-08-17T00:25:33.943Z,13.70
2022-08-17T00:26:44.447Z,14.10
2022-08-17T00:27:33.914Z,13.70
2022-08-17T00:28:33.902Z,13.60
2022-08-17T00:29:33.886Z,14.00
2022-08-17T00:30:51.344Z,15.10
2022-08-17T00:31:33.859Z,15.50
2022-08-17T00:33:13.838Z,14.80
2022-08-17T00:33:33.841Z,14.60
2022-08-17T00:34:33.826Z,14.40
2022-08-17T00:35:33.812Z,14.00
2022-08-17T00:36:33.798Z,13.90
2022-08-17T00:37:33.788Z,14.20
2022-08-17T00:38:33.777Z,14.20
2022-08-17T00:39:33.810Z,14.90
2022-08-17T00:40:44.229Z,14.80
2022-08-17T00:41:33.737Z,14.30
2022-08-17T00:42:33.724Z,14.70
2022-08-17T00:43:33.710Z,15.20
2022-08-17T00:44:33.697Z,14.40
2022-08-17T00:45:33.688Z,15.20
2022-08-17T00:46:33.675Z,14.00
2022-08-17T00:47:33.666Z,15.00
2022-08-17T00:48:33.644Z,14.60
2022-08-17T00:49:33.635Z,14.10
2022-08-17T00:50:33.624Z,14.30
2022-08-17T00:51:33.610Z,14.60
2022-08-17T00:52:33.595Z,14.60
2022-08-17T00:53:33.577Z,13.90
2022-08-17T00:54:33.582Z,15.00
2022-08-17T00:55:33.558Z,14.30
2022-08-17T00:56:33.548Z,14.40
2022-08-17T00:57:33.533Z,15.00
2022-08-17T00:58:36.482Z,14.60
2022-08-17T00:59:33.509Z,15.30
2022-08-17T01:00:33.500Z,14.70
2022-08-17T01:01:33.501Z,15.10
2022-08-17T01:02:40.419Z,15.40
2022-08-17T01:03:33.456Z,14.40
2022-08-17T01:04:33.457Z,14.40
2022-08-17T01:05:33.426Z,14.90
2022-08-17T01:06:33.419Z,14.20
2022-08-17T01:07:33.406Z,14.30
2022-08-17T01:08:33.397Z,15.20
2022-08-17T01:09:33.381Z,14.60
2022-08-17T01:11:01.058Z,14.70
2022-08-17T01:11:33.354Z,14.30
2022-08-17T01:12:33.341Z,14.50
2022-08-17T01:13:38.222Z,15.00
2022-08-17T01:14:33.322Z,15.40
2022-08-17T01:15:33.302Z,14.40
2022-08-17T01:16:33.291Z,14.50
2022-08-17T01:17:33.276Z,15.30
2022-08-17T01:18:33.264Z,15.20
2022-08-17T01:19:33.251Z,14.80
2022-08-17T01:20:43.083Z,15.20
2022-08-17T01:21:33.224Z,15.20
2022-08-17T01:22:33.216Z,14.50
2022-08-17T01:23:33.195Z,15.30
2022-08-17T01:24:33.746Z,14.60
2022-08-17T01:25:33.172Z,14.30
2022-08-17T01:26:33.160Z,14.70
2022-08-17T01:27:33.153Z,14.60
2022-08-17T01:28:53.039Z,14.80
2022-08-17T01:29:33.125Z,14.70
2022-08-17T01:30:58.678Z,15.60
2022-08-17T01:31:33.095Z,15.60
2022-08-17T01:32:33.083Z,15.70
2022-08-17T01:33:33.076Z,15.10
2022-08-17T01:34:42.452Z,15.50
2022-08-17T01:35:33.046Z,15.00
2022-08-17T01:36:33.042Z,15.40
2022-08-17T01:37:33.025Z,15.40
2022-08-17T01:38:33.010Z,15.40
2022-08-17T01:39:33.067Z,15.10
2022-08-17T01:40:32.986Z,16.70
2022-08-17T01:41:32.968Z,15.70
2022-08-17T01:42:32.959Z,15.10
2022-08-17T01:43:32.943Z,16.50
2022-08-17T01:44:32.930Z,16.50
2022-08-17T01:45:32.930Z,16.10
2022-08-17T01:46:32.907Z,15.90
2022-08-17T01:47:32.893Z,15.80
2022-08-17T01:48:32.878Z,15.90
2022-08-17T01:49:32.866Z,16.20
2022-08-17T01:50:32.857Z,16.40
2022-08-17T01:51:33.164Z,15.90
2022-08-17T01:52:32.825Z,15.90
2022-08-17T01:53:32.819Z,17.30
2022-08-17T01:54:32.803Z,16.60
2022-08-17T01:55:32.786Z,15.70
2022-08-17T01:56:32.776Z,16.20
2022-08-17T01:57:32.763Z,15.40
2022-08-17T01:58:32.749Z,16.40
2022-08-17T01:59:32.734Z,16.60
2022-08-17T02:01:00.084Z,16.60
2022-08-17T02:01:32.818Z,15.90
2022-08-17T02:02:32.700Z,15.90
2022-08-17T02:03:32.689Z,15.70
2022-08-17T02:04:32.676Z,16.10
2022-08-17T02:05:32.659Z,16.80
2022-08-17T02:06:52.916Z,14.80
2022-08-17T02:07:32.632Z,15.70
2022-08-17T02:08:39.268Z,16.10
2022-08-17T02:09:32.606Z,16.00
2022-08-17T02:10:33.963Z,16.30
2022-08-17T02:11:32.582Z,17.20
2022-08-17T02:12:39.077Z,16.20
2022-08-17T02:13:32.552Z,16.00
2022-08-17T02:14:32.544Z,16.60
2022-08-17T02:15:32.530Z,15.40
2022-08-17T02:16:37.420Z,15.80
2022-08-17T02:17:32.503Z,16.40
2022-08-17T02:18:32.489Z,16.10
2022-08-17T02:19:32.476Z,15.70
2022-08-17T02:20:41.876Z,15.70
2022-08-17T02:21:32.447Z,15.10
2022-08-17T02:22:32.430Z,15.30
2022-08-17T02:23:32.421Z,15.50
2022-08-17T02:25:00.360Z,14.80
2022-08-17T02:25:32.393Z,15.20
2022-08-17T02:26:32.383Z,15.70
2022-08-17T02:27:32.369Z,14.80
2022-08-17T02:28:32.356Z,15.60
2022-08-17T02:29:32.343Z,15.30
2022-08-17T02:30:59.055Z,15.60
2022-08-17T02:31:32.324Z,14.70
2022-08-17T02:32:32.298Z,15.80
2022-08-17T02:33:42.934Z,15.40
2022-08-17T02:34:32.275Z,14.70
2022-08-17T02:35:32.260Z,15.80
2022-08-17T02:36:32.248Z,15.70
2022-08-17T02:37:32.235Z,15.00
2022-08-17T02:38:32.225Z,14.60
2022-08-17T02:39:32.288Z,15.30
2022-08-17T02:40:36.425Z,15.40
2022-08-17T02:41:32.190Z,15.40
2022-08-17T02:42:32.171Z,15.70
2022-08-17T02:43:32.159Z,14.80
2022-08-17T02:44:39.199Z,15.70
2022-08-17T02:45:32.132Z,15.40
2022-08-17T02:46:32.122Z,15.20
2022-08-17T02:47:32.107Z,15.90
2022-08-17T02:48:32.267Z,15.60
2022-08-17T02:49:32.078Z,16.50
2022-08-17T02:50:32.065Z,15.50
2022-08-17T02:51:32.053Z,15.40
2022-08-17T02:52:42.533Z,15.00
2022-08-17T02:53:35.833Z,16.00
2022-08-17T02:54:41.827Z,15.00
2022-08-17T02:55:31.996Z,15.20
2022-08-17T02:56:31.985Z,15.60
2022-08-17T02:57:31.978Z,15.80
2022-08-17T02:58:35.032Z,14.90
2022-08-17T02:59:31.947Z,15.10
2022-08-17T03:00:31.932Z,15.20
2022-08-17T03:01:31.994Z,15.90
2022-08-17T03:02:31.911Z,15.90
2022-08-17T03:03:31.890Z,15.70
2022-08-17T03:04:35.110Z,16.10
2022-08-17T03:05:31.864Z,15.20
2022-08-17T03:06:31.858Z,15.90
2022-08-17T03:07:31.840Z,15.50
2022-08-17T03:08:31.842Z,15.90
2022-08-17T03:09:31.808Z,15.20
2022-08-17T03:10:31.798Z,16.10
2022-08-17T03:11:31.785Z,15.90
2022-08-17T03:12:31.770Z,15.70
2022-08-17T03:13:31.759Z,16.30
2022-08-17T03:14:31.745Z,15.50
2022-08-17T03:15:31.738Z,15.80
2022-08-17T03:16:31.723Z,15.70
2022-08-17T03:17:31.701Z,15.30
2022-08-17T03:18:31.688Z,16.20
2022-08-17T03:19:31.679Z,15.70
2022-08-17T03:20:31.667Z,15.70
2022-08-17T03:21:31.648Z,16.30
2022-08-17T03:22:36.187Z,15.80
2022-08-17T03:23:31.627Z,15.80
2022-08-17T03:24:31.615Z,16.40
2022-08-17T03:25:31.595Z,16.30
2022-08-17T03:26:31.584Z,16.30
2022-08-17T03:27:31.570Z,15.90
2022-08-17T03:28:31.555Z,15.60
2022-08-17T03:29:31.555Z,16.80
2022-08-17T03:30:31.527Z,15.70
2022-08-17T03:31:31.519Z,16.80
2022-08-17T03:32:31.500Z,15.20
2022-08-17T03:33:31.487Z,16.50
2022-08-17T03:34:31.475Z,16.90
2022-08-17T03:35:31.459Z,16.20
2022-08-17T03:36:31.445Z,16.90
2022-08-17T03:37:31.435Z,16.30
2022-08-17T03:38:39.004Z,16.70
2022-08-17T03:39:31.510Z,16.10
2022-08-17T03:40:34.501Z,17.50
2022-08-17T03:41:31.381Z,16.80
2022-08-17T03:42:32.979Z,16.90
2022-08-17T03:43:31.350Z,16.50
2022-08-17T03:44:31.339Z,16.60
2022-08-17T03:45:31.322Z,16.30
2022-08-17T03:46:35.194Z,16.00
2022-08-17T03:47:31.301Z,17.20
2022-08-17T03:48:31.286Z,17.30
2022-08-17T03:49:31.270Z,16.80
2022-08-17T03:50:31.255Z,17.70
2022-08-17T03:51:33.490Z,15.80
2022-08-17T03:52:31.230Z,16.90
2022-08-17T03:53:31.215Z,17.40
2022-08-17T03:54:31.202Z,16.10
2022-08-17T03:55:36.113Z,16.10
2022-08-17T03:56:31.177Z,17.00
2022-08-17T03:57:31.161Z,16.20
2022-08-17T03:58:31.153Z,16.80
2022-08-17T03:59:31.132Z,16.60
2022-08-17T04:00:31.123Z,17.10
2022-08-17T04:01:31.175Z,17.20
2022-08-17T04:02:31.097Z,17.00
2022-08-17T04:03:31.085Z,17.50
2022-08-17T04:04:31.065Z,16.60
2022-08-17T04:05:31.049Z,16.90
2022-08-17T04:06:31.042Z,17.70
2022-08-17T04:07:31.020Z,17.50
2022-08-17T04:08:31.013Z,17.00
2022-08-17T04:09:30.998Z,17.20
2022-08-17T04:10:30.992Z,17.30
2022-08-17T04:11:30.968Z,17.70
2022-08-17T04:12:31.387Z,22.50
2022-08-17T04:13:30.945Z,28.00
2022-08-17T04:14:30.926Z,19.30
2022-08-17T04:15:30.916Z,17.60
2022-08-17T04:16:30.901Z,19.20
2022-08-17T04:17:30.888Z,18.90
2022-08-17T04:18:30.874Z,17.20
2022-08-17T04:19:30.859Z,17.50
2022-08-17T04:20:30.847Z,17.20
2022-08-17T04:21:30.834Z,17.10
2022-08-17T04:22:34.199Z,17.50
2022-08-17T04:23:30.808Z,16.90
2022-08-17T04:24:30.794Z,16.90
2022-08-17T04:25:30.787Z,18.00
2022-08-17T04:26:53.024Z,16.90
2022-08-17T04:27:30.750Z,16.50
2022-08-17T04:28:30.737Z,17.50
2022-08-17T04:29:55.183Z,17.10
2022-08-17T04:30:30.713Z,16.80
2022-08-17T04:31:30.699Z,17.50
2022-08-17T04:33:03.939Z,16.90
2022-08-17T04:33:30.667Z,17.70
2022-08-17T04:34:30.668Z,17.10
2022-08-17T04:35:30.651Z,16.70
2022-08-17T04:36:30.627Z,17.50
2022-08-17T04:37:30.618Z,16.40
2022-08-17T04:38:30.608Z,17.50
2022-08-17T04:39:31.542Z,16.40
2022-08-17T04:40:30.571Z,16.70
2022-08-17T04:41:30.569Z,17.70
2022-08-17T04:42:30.545Z,17.40
2022-08-17T04:43:30.529Z,16.10
2022-08-17T04:44:37.217Z,16.10
2022-08-17T04:45:32.075Z,17.30
2022-08-17T04:46:30.495Z,17.10
2022-08-17T04:47:30.482Z,18.00
2022-08-17T04:48:36.951Z,16.80
2022-08-17T04:49:30.454Z,17.60
2022-08-17T04:50:30.437Z,17.50
2022-08-17T04:51:30.426Z,15.90
2022-08-17T04:52:43.456Z,16.40
2022-08-17T04:53:30.397Z,16.80
2022-08-17T04:54:30.384Z,17.60
2022-08-17T04:55:30.367Z,18.20
2022-08-17T04:56:30.354Z,16.40
2022-08-17T04:57:30.338Z,16.50
2022-08-17T04:58:30.323Z,16.70
2022-08-17T04:59:30.316Z,17.00
2022-08-17T05:00:30.304Z,16.90
2022-08-17T05:01:30.286Z,16.70
2022-08-17T05:02:30.270Z,17.50
2022-08-17T05:03:30.262Z,17.80
2022-08-17T05:04:35.095Z,17.30
2022-08-17T05:05:30.232Z,16.70
2022-08-17T05:06:30.221Z,16.40
2022-08-17T05:07:31.712Z,17.10
2022-08-17T05:08:30.194Z,16.40
2022-08-17T05:09:30.177Z,16.90
2022-08-17T05:10:30.161Z,17.30
2022-08-17T05:11:30.148Z,15.50
2022-08-17T05:12:30.133Z,16.90
2022-08-17T05:13:30.119Z,16.10
2022-08-17T05:14:33.749Z,16.20
2022-08-17T05:15:33.228Z,16.30
2022-08-17T05:16:30.078Z,17.10
2022-08-17T05:17:30.065Z,16.50
2022-08-17T05:18:30.054Z,16.80
2022-08-17T05:19:30.034Z,17.60
2022-08-17T05:20:30.026Z,17.20
2022-08-17T05:21:30.019Z,16.10
2022-08-17T05:22:29.998Z,16.30
2022-08-17T05:23:41.842Z,16.90
2022-08-17T05:24:38.585Z,17.10
2022-08-17T05:25:29.959Z,17.20
2022-08-17T05:26:29.942Z,16.60
2022-08-17T05:27:35.066Z,17.10
2022-08-17T05:28:29.918Z,15.50
2022-08-17T05:29:34.290Z,16.20
2022-08-17T05:30:29.892Z,16.60
2022-08-17T05:31:29.887Z,15.90
2022-08-17T05:32:38.457Z,16.70
2022-08-17T05:33:29.847Z,16.90
2022-08-17T05:34:29.835Z,16.10
2022-08-17T05:35:29.818Z,15.80
2022-08-17T05:36:43.484Z,16.40
2022-08-17T05:37:29.798Z,16.00
2022-08-17T05:38:29.783Z,15.50
2022-08-17T05:39:29.823Z,16.60
2022-08-17T05:40:32.867Z,16.30
2022-08-17T05:41:29.737Z,16.20
2022-08-17T05:42:29.729Z,16.40
2022-08-17T05:43:29.716Z,16.50
2022-08-17T05:44:29.708Z,15.80
2022-08-17T05:45:54.867Z,16.90
2022-08-17T05:46:29.679Z,16.00
2022-08-17T05:47:29.660Z,16.50
2022-08-17T05:48:35.623Z,17.10
2022-08-17T05:49:29.633Z,16.30
2022-08-17T05:50:29.915Z,17.30
2022-08-17T05:51:29.611Z,16.90
2022-08-17T05:52:29.594Z,16.60
2022-08-17T05:53:29.585Z,16.60
2022-08-17T05:54:29.569Z,17.00
2022-08-17T05:55:29.561Z,15.80
2022-08-17T05:56:30.665Z,16.00
2022-08-17T05:57:29.530Z,16.40
2022-08-17T05:58:29.518Z,15.90
2022-08-17T05:59:29.502Z,15.90
2022-08-17T06:00:30.843Z,15.00
2022-08-17T06:01:29.617Z,15.60
2022-08-17T06:02:29.464Z,15.90
2022-08-17T06:03:29.445Z,15.90
2022-08-17T06:04:29.434Z,16.20
2022-08-17T06:05:29.425Z,15.30
2022-08-17T06:06:31.571Z,15.90
2022-08-17T06:07:29.395Z,14.90
2022-08-17T06:08:29.381Z,15.70
2022-08-17T06:09:33.646Z,15.70
2022-08-17T06:10:29.360Z,15.60
2022-08-17T06:11:29.347Z,15.90
2022-08-17T06:12:29.333Z,15.30
2022-08-17T06:13:29.318Z,15.90
2022-08-17T06:14:29.307Z,15.20
2022-08-17T06:15:29.295Z,14.80
2022-08-17T06:16:34.442Z,15.00
2022-08-17T06:17:29.268Z,15.30
2022-08-17T06:18:29.253Z,15.70
2022-08-17T06:19:29.238Z,15.20
2022-08-17T06:20:29.233Z,14.80
2022-08-17T06:21:32.084Z,15.10
2022-08-17T06:22:29.199Z,14.10
2022-08-17T06:23:29.194Z,15.10
2022-08-17T06:24:29.177Z,14.80
2022-08-17T06:25:29.164Z,14.70
2022-08-17T06:26:30.290Z,15.40
2022-08-17T06:27:29.137Z,14.40
2022-08-17T06:28:29.139Z,15.40
2022-08-17T06:29:29.119Z,14.10
2022-08-17T06:30:29.106Z,15.40
2022-08-17T06:31:29.091Z,14.30
2022-08-17T06:32:29.079Z,14.40
2022-08-17T06:33:29.061Z,14.20
2022-08-17T06:34:29.050Z,14.60
2022-08-17T06:35:31.759Z,14.00
2022-08-17T06:36:29.028Z,14.50
2022-08-17T06:37:29.011Z,15.10
2022-08-17T06:38:37.724Z,14.70
2022-08-17T06:39:29.011Z,14.70
2022-08-17T06:40:28.980Z,13.90
2022-08-17T06:41:28.967Z,14.10
2022-08-17T06:42:54.909Z,15.00
2022-08-17T06:43:28.938Z,13.70
2022-08-17T06:44:43.265Z,14.20
2022-08-17T06:45:28.917Z,14.70
2022-08-17T06:46:28.902Z,14.70
2022-08-17T06:47:29.296Z,13.60
2022-08-17T06:48:28.878Z,13.70
2022-08-17T06:49:28.860Z,14.40
2022-08-17T06:50:28.847Z,13.90
2022-08-17T06:51:28.838Z,13.90
2022-08-17T06:52:46.551Z,14.50
2022-08-17T06:53:28.814Z,14.40
2022-08-17T06:54:28.802Z,14.00
2022-08-17T06:55:28.788Z,14.00
2022-08-17T06:56:54.130Z,14.20
2022-08-17T06:57:28.765Z,13.50
2022-08-17T06:58:29.608Z,14.10
2022-08-17T06:59:54.204Z,15.00
2022-08-17T07:00:28.781Z,14.30
2022-08-17T07:01:28.813Z,14.40
2022-08-17T07:02:28.882Z,13.50
2022-08-17T07:03:28.692Z,14.70
2022-08-17T07:04:28.688Z,14.70
2022-08-17T07:05:28.666Z,13.00
2022-08-17T07:06:28.655Z,13.90
2022-08-17T07:07:28.642Z,13.50
2022-08-17T07:08:31.992Z,14.40
2022-08-17T07:09:28.622Z,13.30
2022-08-17T07:10:28.608Z,13.10
2022-08-17T07:11:28.607Z,14.00
2022-08-17T07:12:28.589Z,12.10
2022-08-17T07:13:28.597Z,12.70
2022-08-17T07:14:28.566Z,12.10
2022-08-17T07:15:28.562Z,12.10
2022-08-17T07:16:28.541Z,13.50
2022-08-17T07:17:47.058Z,13.20
2022-08-17T07:18:28.519Z,11.90
2022-08-17T07:19:28.513Z,12.70
2022-08-17T07:20:28.499Z,12.00
2022-08-17T07:21:28.489Z,12.20
2022-08-17T07:22:28.482Z,12.80
2022-08-17T07:23:28.478Z,12.50
2022-08-17T07:24:29.995Z,11.90
2022-08-17T07:25:28.451Z,11.70
2022-08-17T07:26:28.449Z,12.00
2022-08-17T07:27:28.440Z,11.90
2022-08-17T07:28:28.428Z,11.90
2022-08-17T07:29:28.423Z,10.90
2022-08-17T07:30:28.415Z,10.70
2022-08-17T07:31:28.411Z,10.10
2022-08-17T07:32:28.397Z,11.30
2022-08-17T07:33:28.391Z,10.90
2022-08-17T07:34:29.234Z,11.00
2022-08-17T07:35:31.324Z,11.20
2022-08-17T07:36:30.198Z,11.00
2022-08-17T07:37:28.370Z,11.00
2022-08-17T07:38:28.533Z,10.40
2022-08-17T07:39:28.406Z,9.90
2022-08-17T07:40:28.410Z,10.10
2022-08-17T07:41:58.734Z,10.00
2022-08-17T07:42:28.351Z,9.20
2022-08-17T07:43:29.450Z,9.80
2022-08-17T07:44:28.343Z,9.50
2022-08-17T07:45:28.340Z,10.00
2022-08-17T07:46:28.337Z,9.10
2022-08-17T07:47:28.334Z,9.50
2022-08-17T07:48:28.327Z,9.10
2022-08-17T07:49:28.320Z,9.10
2022-08-17T07:50:28.318Z,9.40
2022-08-17T07:51:28.314Z,8.80
2022-08-17T07:52:50.553Z,8.90
2022-08-17T07:53:28.311Z,8.90
2022-08-17T07:54:28.299Z,9.30
2022-08-17T07:55:28.290Z,8.60
2022-08-17T07:56:28.283Z,9.10
2022-08-17T07:57:30.086Z,9.70
2022-08-17T07:58:28.267Z,9.60
2022-08-17T07:59:30.563Z,9.50
2022-08-17T08:00:31.974Z,9.10
2022-08-17T08:01:39.600Z,9.40
2022-08-17T08:02:33.713Z,9.80
2022-08-17T08:03:28.444Z,8.30
2022-08-17T08:04:49.952Z,8.70
2022-08-17T08:05:30.749Z,8.70
2022-08-17T08:06:28.203Z,8.80
2022-08-17T08:07:28.196Z,9.00
2022-08-17T08:08:28.301Z,8.80
2022-08-17T08:09:28.179Z,8.60
2022-08-17T08:10:28.171Z,9.20
2022-08-17T08:11:28.155Z,9.10
2022-08-17T08:12:28.972Z,9.00
2022-08-17T08:13:28.140Z,9.00
2022-08-17T08:14:28.536Z,8.40
2022-08-17T08:15:28.121Z,9.50
2022-08-17T08:16:28.107Z,8.50
2022-08-17T08:17:28.100Z,8.50
2022-08-17T08:18:54.423Z,8.20
2022-08-17T08:19:28.084Z,9.00
2022-08-17T08:20:51.460Z,8.80
2022-08-17T08:21:28.065Z,8.80
2022-08-17T08:22:28.052Z,9.10
2022-08-17T08:23:28.038Z,8.20
2022-08-17T08:24:30.894Z,9.00
2022-08-17T08:25:28.798Z,8.50
2022-08-17T08:26:28.012Z,8.40
2022-08-17T08:27:28.004Z,8.20
2022-08-17T08:28:27.995Z,8.00
2022-08-17T08:29:27.978Z,7.50
2022-08-17T08:30:27.970Z,8.20
2022-08-17T08:31:27.959Z,8.20
2022-08-17T08:32:27.953Z,7.50
2022-08-17T08:33:27.939Z,7.60
2022-08-17T08:34:59.056Z,7.70
2022-08-17T08:35:27.915Z,7.90
2022-08-17T08:37:12.748Z,7.60
2022-08-17T08:37:35.538Z,7.90
2022-08-17T08:38:28.189Z,8.00
2022-08-17T08:39:27.959Z,7.30
2022-08-17T08:40:27.863Z,7.60
2022-08-17T08:41:27.854Z,7.30
2022-08-17T08:42:27.844Z,7.40
2022-08-17T08:43:27.836Z,7.00
2022-08-17T08:45:01.121Z,7.30
2022-08-17T08:45:27.810Z,7.90
2022-08-17T08:46:27.804Z,7.00
2022-08-17T08:47:27.794Z,7.40
2022-08-17T08:48:55.933Z,7.50
2022-08-17T08:49:45.580Z,7.20
2022-08-17T08:50:37.291Z,7.40
2022-08-17T08:51:27.755Z,7.40
2022-08-17T08:52:27.745Z,8.00
2022-08-17T08:53:27.729Z,7.50
2022-08-17T08:54:27.722Z,7.90
2022-08-17T08:55:27.710Z,6.80
2022-08-17T08:56:27.699Z,6.80
2022-08-17T08:57:33.494Z,7.30
2022-08-17T08:58:32.212Z,7.00
2022-08-17T08:59:27.681Z,7.20
2022-08-17T09:00:27.661Z,6.40
2022-08-17T09:01:27.718Z,6.60
2022-08-17T09:02:27.643Z,6.90
2022-08-17T09:03:51.255Z,6.80
2022-08-17T09:04:27.621Z,7.10
2022-08-17T09:05:27.620Z,7.20
2022-08-17T09:06:32.488Z,6.30
2022-08-17T09:07:27.594Z,6.90
2022-08-17T09:08:27.613Z,6.40
2022-08-17T09:09:27.580Z,6.60
2022-08-17T09:10:27.569Z,6.20
2022-08-17T09:11:27.563Z,6.40
2022-08-17T09:12:27.557Z,6.30
2022-08-17T09:13:27.547Z,6.30
2022-08-17T09:14:28.708Z,6.40
2022-08-17T09:15:27.588Z,6.10
2022-08-17T09:16:27.519Z,5.70
2022-08-17T09:17:27.518Z,6.30
2022-08-17T09:19:00.418Z,5.60
2022-08-17T09:19:27.494Z,6.20
2022-08-17T09:20:28.677Z,6.30
2022-08-17T09:21:27.491Z,5.80
2022-08-17T09:22:27.466Z,5.80
2022-08-17T09:23:27.463Z,5.80
2022-08-17T09:24:27.464Z,5.80
2022-08-17T09:25:27.450Z,6.00
2022-08-17T09:26:27.438Z,6.20
2022-08-17T09:27:27.424Z,6.00
2022-08-17T09:28:27.421Z,5.70
2022-08-17T09:29:27.406Z,5.50
2022-08-17T09:30:27.400Z,5.50
2022-08-17T09:31:32.735Z,5.50
2022-08-17T09:32:27.382Z,6.20
2022-08-17T09:33:27.373Z,5.70
2022-08-17T09:34:31.995Z,5.60
2022-08-17T09:35:36.579Z,5.40
2022-08-17T09:36:27.349Z,5.70
2022-08-17T09:37:27.347Z,5.80
2022-08-17T09:38:32.184Z,5.70
2022-08-17T09:39:27.393Z,5.70
2022-08-17T09:40:27.320Z,5.80
2022-08-17T09:41:27.316Z,6.20
2022-08-17T09:42:27.299Z,6.20
2022-08-17T09:43:27.285Z,5.80
2022-08-17T09:44:27.292Z,6.00
2022-08-17T09:45:27.272Z,6.50
2022-08-17T09:46:27.263Z,6.60
2022-08-17T09:47:27.250Z,6.70
2022-08-17T09:48:27.243Z,6.30
2022-08-17T09:49:27.246Z,6.50
2022-08-17T09:51:03.266Z,6.60
2022-08-17T09:51:27.241Z,6.50
2022-08-17T09:52:27.217Z,6.00
2022-08-17T09:53:27.205Z,6.50
2022-08-17T09:54:40.995Z,5.90
2022-08-17T09:55:27.193Z,6.00
2022-08-17T09:56:27.172Z,6.50
2022-08-17T09:57:31.665Z,6.10
2022-08-17T09:58:29.239Z,6.50
2022-08-17T09:59:27.144Z,6.40
2022-08-17T10:00:27.142Z,5.70
2022-08-17T10:01:27.182Z,6.50
2022-08-17T10:02:27.115Z,6.30
2022-08-17T10:03:27.120Z,6.60
2022-08-17T10:04:29.648Z,6.00
2022-08-17T10:05:27.105Z,5.90
2022-08-17T10:06:27.077Z,6.10
2022-08-17T10:07:27.071Z,6.20
2022-08-17T10:08:27.059Z,6.60
2022-08-17T10:09:27.049Z,6.00
2022-08-17T10:10:27.040Z,5.90
2022-08-17T10:11:33.640Z,6.70
2022-08-17T10:12:29.848Z,5.90
2022-08-17T10:13:27.013Z,6.10
2022-08-17T10:14:37.990Z,6.20
2022-08-17T10:15:27.029Z,6.20
2022-08-17T10:16:26.983Z,6.00
2022-08-17T10:17:26.976Z,6.40
2022-08-17T10:18:32.030Z,6.10
2022-08-17T10:19:26.957Z,5.80
2022-08-17T10:20:26.946Z,5.80
2022-08-17T10:21:26.937Z,6.70
2022-08-17T10:22:35.414Z,6.00
2022-08-17T10:23:26.922Z,6.00
2022-08-17T10:24:26.910Z,6.50
2022-08-17T10:25:42.562Z,6.00
2022-08-17T10:26:26.889Z,5.70
2022-08-17T10:27:26.880Z,5.90
2022-08-17T10:28:29.733Z,6.40
2022-08-17T10:29:26.967Z,6.20
2022-08-17T10:30:26.861Z,6.40
2022-08-17T10:31:35.452Z,5.90
2022-08-17T10:32:26.832Z,6.20
2022-08-17T10:33:26.821Z,6.00
2022-08-17T10:34:26.810Z,6.80
2022-08-17T10:35:26.798Z,6.10
2022-08-17T10:36:26.790Z,5.80
2022-08-17T10:37:26.782Z,5.90
2022-08-17T10:38:26.774Z,6.10
2022-08-17T10:39:26.912Z,6.10
2022-08-17T10:40:26.848Z,5.30
2022-08-17T10:41:26.739Z,5.80
2022-08-17T10:42:30.535Z,5.40
2022-08-17T10:43:26.725Z,5.50
2022-08-17T10:44:39.217Z,5.90
2022-08-17T10:45:26.704Z,6.10
2022-08-17T10:46:31.176Z,5.90
2022-08-17T10:47:26.683Z,6.00
2022-08-17T10:48:26.675Z,5.60
2022-08-17T10:49:26.669Z,6.20
2022-08-17T10:50:26.654Z,6.00
2022-08-17T10:51:26.645Z,5.90
2022-08-17T10:52:26.639Z,6.00
2022-08-17T10:53:26.622Z,5.80
2022-08-17T10:54:26.613Z,5.80
2022-08-17T10:55:26.617Z,6.20
2022-08-17T10:56:26.594Z,5.60
2022-08-17T10:57:26.587Z,5.50
2022-08-17T10:58:27.141Z,6.30
2022-08-17T10:59:26.563Z,6.20
2022-08-17T11:00:27.742Z,5.90
2022-08-17T11:01:26.591Z,6.00
2022-08-17T11:02:26.537Z,6.00
2022-08-17T11:03:26.524Z,5.40
2022-08-17T11:04:26.517Z,5.40
2022-08-17T11:05:26.503Z,5.80
2022-08-17T11:06:26.507Z,5.70
2022-08-17T11:07:26.488Z,5.60
2022-08-17T11:08:26.482Z,5.80
2022-08-17T11:09:26.483Z,5.50
2022-08-17T11:10:26.459Z,6.30
2022-08-17T11:11:26.448Z,5.70
2022-08-17T11:12:26.438Z,5.70
2022-08-17T11:13:26.426Z,6.40
2022-08-17T11:14:26.416Z,5.70
2022-08-17T11:15:26.405Z,5.50
2022-08-17T11:16:26.395Z,6.00
2022-08-17T11:17:26.392Z,5.50
2022-08-17T11:18:26.380Z,5.70
2022-08-17T11:19:26.372Z,5.30
2022-08-17T11:20:26.360Z,6.00
2022-08-17T11:21:26.349Z,6.20
2022-08-17T11:22:31.264Z,5.80
2022-08-17T11:23:26.337Z,5.70
2022-08-17T11:24:26.321Z,6.30
2022-08-17T11:25:26.311Z,5.60
2022-08-17T11:26:26.433Z,5.80
2022-08-17T11:27:26.296Z,5.40
2022-08-17T11:28:26.307Z,5.90
2022-08-17T11:29:26.274Z,5.80
2022-08-17T11:30:26.710Z,5.80
2022-08-17T11:31:39.336Z,5.70
2022-08-17T11:32:26.238Z,5.70
2022-08-17T11:33:26.231Z,5.60
2022-08-17T11:34:26.257Z,5.30
2022-08-17T11:35:26.881Z,5.50
2022-08-17T11:36:26.200Z,5.60
2022-08-17T11:37:26.194Z,5.60
2022-08-17T11:38:26.184Z,5.40
2022-08-17T11:39:26.201Z,5.80
2022-08-17T11:40:26.163Z,5.70
2022-08-17T11:41:26.153Z,5.70
2022-08-17T11:42:26.145Z,5.00
2022-08-17T11:43:26.133Z,5.30
2022-08-17T11:44:26.124Z,6.00
2022-08-17T11:45:32.579Z,5.90
2022-08-17T11:46:26.104Z,5.40
2022-08-17T11:47:26.101Z,5.20
2022-08-17T11:48:28.348Z,5.70
2022-08-17T11:49:26.076Z,6.40
2022-08-17T11:50:28.033Z,6.30
2022-08-17T11:51:26.061Z,6.80
2022-08-17T11:52:26.051Z,6.90
2022-08-17T11:53:26.039Z,5.90
2022-08-17T11:54:34.618Z,6.40
2022-08-17T11:55:34.993Z,6.10
2022-08-17T11:56:26.013Z,6.30
2022-08-17T11:57:26.003Z,6.00
2022-08-17T11:58:25.992Z,6.40
2022-08-17T11:59:25.983Z,6.30
2022-08-17T12:00:25.999Z,6.20
2022-08-17T12:01:25.970Z,6.40
2022-08-17T12:02:25.952Z,6.50
2022-08-17T12:03:25.999Z,6.00
2022-08-17T12:04:26.066Z,6.80
2022-08-17T12:05:25.932Z,6.70
2022-08-17T12:06:30.241Z,6.20
2022-08-17T12:07:25.908Z,7.10
2022-08-17T12:08:25.892Z,6.50
2022-08-17T12:09:25.884Z,6.10
2022-08-17T12:10:25.877Z,6.50
2022-08-17T12:11:56.393Z,5.90
2022-08-17T12:12:25.852Z,6.40
2022-08-17T12:13:30.474Z,6.20
2022-08-17T12:14:40.079Z,7.60
2022-08-17T12:15:25.827Z,7.70
2022-08-17T12:16:25.814Z,7.70
2022-08-17T12:17:40.139Z,9.00
2022-08-17T12:18:25.795Z,9.50
2022-08-17T12:19:25.789Z,9.40
2022-08-17T12:20:25.771Z,10.70
2022-08-17T12:21:25.765Z,10.70
2022-08-17T12:22:25.753Z,11.20
2022-08-17T12:23:25.741Z,11.20
2022-08-17T12:24:25.735Z,11.20
2022-08-17T12:25:25.724Z,11.10
2022-08-17T12:26:25.711Z,11.50
2022-08-17T12:28:04.197Z,11.80
2022-08-17T12:28:25.695Z,12.40
2022-08-17T12:29:38.377Z,12.10
2022-08-17T12:30:25.671Z,11.30
2022-08-17T12:31:25.658Z,12.20
2022-08-17T12:32:25.664Z,12.70
2022-08-17T12:33:28.554Z,12.10
2022-08-17T12:34:25.628Z,12.40
2022-08-17T12:35:25.615Z,11.30
2022-08-17T12:36:25.607Z,12.00
2022-08-17T12:37:25.599Z,11.40
2022-08-17T12:38:28.114Z,11.70
2022-08-17T12:39:25.579Z,11.40
2022-08-17T12:40:25.562Z,11.70
2022-08-17T12:41:25.583Z,12.00
2022-08-17T12:42:25.540Z,11.70
2022-08-17T12:43:25.538Z,11.50
2022-08-17T12:44:25.521Z,11.80
2022-08-17T12:45:25.509Z,11.70
2022-08-17T12:46:25.759Z,10.80
2022-08-17T12:47:25.488Z,11.70
2022-08-17T12:48:25.483Z,11.60
2022-08-17T12:49:25.469Z,11.00
2022-08-17T12:50:28.638Z,11.50
2022-08-17T12:51:25.446Z,11.60
2022-08-17T12:52:25.440Z,11.80
2022-08-17T12:53:25.438Z,11.50
2022-08-17T12:54:25.421Z,10.90
2022-08-17T12:55:25.406Z,11.40
2022-08-17T12:56:25.391Z,10.70
2022-08-17T12:57:25.385Z,9.60
2022-08-17T12:58:25.370Z,9.30
2022-08-17T12:59:30.184Z,9.20
2022-08-17T13:00:25.351Z,9.60
2022-08-17T13:01:25.431Z,9.40